Grannis, AR

1:04 PM CDT on July 03, 2015 (GMT -0500)
Jones Ridge | | Change Station
CLOSE
Current Station
Personal Weather Station
Location: De Queen, AR
Elevation: 502 ft
Nearby Weather Stations

Elev 502 ft 34.07 °N, 94.32 °W | Updated 8 seconds ago

Rain
Rain
77.9 °F
Feels Like 80 °F
N
5.4
Wind Variable Wind from South
Gusts 7.6 mph

Today
High -- | Low -- °F
--% Chance of Precip.
Yesterday
High -- | Low -- °F
Precip. -- in
6:10 AM 8:33 PM
Waning Gibbous, 96% visible
Pressure 29.94 in
Visibility 8.0 miles
Clouds Scattered Clouds 1200 ft
Mostly Cloudy 1700 ft
Mostly Cloudy 2400 ft
Heat Index 80 °F
Dew Point 78 °F
Humidity 99%
Rainfall 1.00 in
Snow Depth Not available.
UV 7 out of 12
Pollen .50 out of 12
Air Quality Not available.
Flu Activity Not available.
METAR KDEQ 031753Z AUTO 24013G19KT 8SM SCT012 BKN017 BKN024 26/24 A2995 RMK AO2 LTG DSNT E RAB1655E12 SLP137 P0000 6//// T02560239 10261 20239 53001 $

More Conditions Fewer Conditions

Pressure 29.94 in
Visibility 8.0 miles
Clouds Scattered Clouds 1200 ft
Mostly Cloudy 1700 ft
Mostly Cloudy 2400 ft
Heat Index 80 °F
Dew Point 78 °F
Humidity 99%
Rainfall 1.00 in
Snow Depth Not available.
UV 7 out of 12
Pollen .50 out of 12
Air Quality Not available.
Flu Activity Not available.
METAR KDEQ 031753Z AUTO 24013G19KT 8SM SCT012 BKN017 BKN024 26/24 A2995 RMK AO2 LTG DSNT E RAB1655E12 SLP137 P0000 6//// T02560239 10261 20239 53001 $

More Conditions Fewer Conditions

10-Day Weather Forecast

×

Almanac

Astronomy

Jul. 03, 2015 Rise Set
Actual Time
Civil Twilight
Nautical Twilight
Astronomical Twilight
Moon
Length of Visible Light
Length of Day
Tomorrow will be .
, % of the Moon is Illuminated

Today's Extremes

State Highs State Lows

Community

WunderPhotos

Upload Photos

1,834,732 photos uploaded!

WunderBlogs® & News

Nearby

Air Quality

  Air Quality AQ Index Pollutant
Not available.

Snow Depth

Station Depth Elevation

Earthquake Activity

City Distance Mag. Time & Date
Minimum magnitude displayed is 2.5.

Coastal Water Temperatures

Place Temperature

Stations

Nearby Weather Stations

Station Location Temp. Windchill Dew Point Humidity Wind Precip. Elev Updated Type